Αρχική σελίδα
METAR-TAF:

METAR-TAF

Αεροδρόμια :

Guaratinguetá, Σάο Πάολο, Βραζιλία

γεωγραφικό πλάτος: 22-47S, γεωγραφικό μήκος: 045-12W, υψόμετρο: 537 μ

Παρών καιρός

Η αναφορά έγινε 53 λεπτά πριν, στις 19:00 UTC
Άνεμος 3 kt από Β, μεταβλητός μεταξύ και BA
Θερμοκρασία 29°C
Υγρασία 35%
Πίεση 1020 hPa
Ορατότητα 10 χλμ και άνω
Δεν υπάρχουν νέφη με βάση κάτω από τα 1500 μ. και δεν υπάρχουν νέφη σωρειτομελανίτες.

METAR: SBGW 151900Z 01003KT 320V040 CAVOK 29/12 Q1020

Χρόνος: 16:53 (19:53 UTC)

Πρόγνωση Καιρού

Η αναφορά έγινε 4 ώρες και 53 λεπτά πριν, στις 15:00 UTC
Η πρόγνωση ισχύει από τις 15 στις 18 UTC έως τις 16 στις 06 UTC
Άνεμος 3 kt από BA
Ορατότητα 10 χλμ και άνω
Δεν υπάρχουν νέφη με βάση κάτω από τα 1500 μ. και δεν υπάρχουν νέφη σωρειτομελανίτες.

TAF: SBGW 151500Z 1518/1606 05003KT CAVOK TX28/1518Z TN14/1605Z RMK PBH

Μετεωρολογικές αναφορές και προγνώσεις για περισσότερα από 4000 αεροδρόμια (δελτία METAR και TAF).

Οι διαθέσιμοι σταθμοί απεικονίζονται στο χάρτη με κίτρινες και κόκκινες κουκκίδες.

Μετακινήστε το ποντίκι πάνω από τις κουκκίδες για να δείτε το όνομα του σταθμού.

Στη συνέχεια, κάντε κλικ για να δείτε τις μετεωρολογικές αναφορές και τις προγνώσεις καιρού.

Για να αλλάξετε το χάρτη: κάντε κλικ στα πράσινα κουμπιά με τον μαύρο σταυρό για να ζουμάρετε, στο πράσινο κουμπί με την παύλα για να αφαιρέσετε το ζουμ ή στα πράσινα βέλη για να αντιπαραβάλλετε χάρτες.


METAR-TAF: